Parow, South Africa
Current Conditions -  °F | °C
As of 10:00 AM on Thursday 23 Oct 2014 (Local Time) from FACT Reporting Station
Broken Clouds Broken Clouds  
Wind Chill: 68°   Ceiling: 2700
Heat Index: 68°   Visibility: 6mi
Dew Point: 57°   Wind: 6mph
Humidity: 68%   Direction: 150°SSE
Pressure: 30.03"   Gusts: NA
Location:  33.9°S, 18.6°E
Report Text: FACT 230800Z 15005KT 100V190 9999 BKN027 20/14 Q1017 NOSIG
Loading
Personal Weather Stations






























Interactive Weather Map
Tropical Storm Tracking
New forecast layout! Learn more

10-Day Weather Forecast

Advertisements
Track Severe Weather on mobile